Urb San Miguel, Puerto Rico
Current Conditions -  °F | °C
As of 5:50 PM on Monday 22 Dec 2014 (Local Time) from TJPS Reporting Station
Few Clouds Few Clouds  
Wind Chill: 82°   Ceiling: Unl
Heat Index: 87°   Visibility: 10mi
Dew Point: 72°   Wind: 9mph
Humidity: 70%   Direction: 100°E
Pressure: 29.94"   Gusts: NA
Location:  18.0664°N, 66.9568°W
Report Text: TJPS 222150Z 10008KT 10SM FEW030 28/22 A2994
Loading
Personal Weather Stations






























Interactive Weather Map New forecast layout! Learn more

10-Day Weather Forecast

Advertisements
Track Severe Weather on mobile